Time;durP1;ratioP1;P1;durP2;ratioP2;P2;SDS_P1;SDS_P2;PMS_P1;PMS_P2;Temp;Humidity;BMP_temperature;BMP_pressure;BME280_temperature;BME280_humidity;BME280_pressure;Samples;Min_cycle;Max_cycle;Signal;HPM_P1;HPM_P2
2023/06/12 00:00:39;;;;;;;7.43;6.13;;;;;;;19.30;47.57;96029.59;5005549;28;20235;-72
2023/06/12 00:03:05;;;;;;;6.80;6.20;;;;;;;19.34;47.78;96028.34;5005697;28;20362;-73
2023/06/12 00:05:30;;;;;;;8.70;8.00;;;;;;;19.44;48.10;96039.91;5005693;28;20180;-72
2023/06/12 00:07:57;;;;;;;7.27;6.67;;;;;;;19.58;47.55;96038.72;5007154;28;20180;-72
2023/06/12 00:10:23;;;;;;;7.63;6.93;;;;;;;19.45;47.66;96032.75;5007017;28;20188;-72
2023/06/12 00:12:49;;;;;;;12.20;7.40;;;;;;;19.82;47.33;96037.63;5007135;28;20783;-72
2023/06/12 00:15:14;;;;;;;7.90;7.17;;;;;;;19.31;47.96;96039.25;5006843;28;20415;-72
2023/06/12 00:17:40;;;;;;;8.57;7.63;;;;;;;19.84;46.51;96038.31;5006693;28;20291;-71
2023/06/12 00:20:06;;;;;;;10.97;7.37;;;;;;;19.36;47.60;96044.19;5006327;28;20200;-71
2023/06/12 00:22:32;;;;;;;7.63;6.93;;;;;;;19.32;48.20;96043.59;5005879;28;20325;-73
2023/06/12 00:24:57;;;;;;;8.43;6.97;;;;;;;19.22;48.24;96040.84;5006617;28;20415;-73
2023/06/12 00:27:23;;;;;;;9.90;7.60;;;;;;;19.21;48.69;96043.66;5006976;28;20226;-73
2023/06/12 00:29:49;;;;;;;9.70;7.53;;;;;;;19.07;49.38;96042.16;5006802;28;20205;-72
2023/06/12 00:32:14;;;;;;;7.67;7.00;;;;;;;19.44;48.24;96033.72;5006784;28;20188;-72
2023/06/12 00:34:39;;;;;;;7.53;6.87;;;;;;;19.42;48.66;96041.00;5006193;28;20621;-72
2023/06/12 00:37:05;;;;;;;7.50;6.60;;;;;;;18.99;49.02;96034.84;5006567;28;20199;-72
2023/06/12 00:39:30;;;;;;;7.97;7.27;;;;;;;18.80;49.65;96035.53;5006552;28;21017;-72
2023/06/12 00:41:56;;;;;;;7.87;7.27;;;;;;;18.72;50.22;96032.59;5006302;28;20713;-71
2023/06/12 00:44:21;;;;;;;16.37;7.27;;;;;;;18.67;50.10;96036.63;5006074;28;20298;-71
2023/06/12 00:46:47;;;;;;;8.43;7.63;;;;;;;19.06;48.76;96035.13;5006639;28;20174;-72
2023/06/12 00:49:12;;;;;;;7.90;7.20;;;;;;;19.23;49.31;96033.75;5004804;28;20180;-71
2023/06/12 00:51:39;;;;;;;8.17;7.40;;;;;;;19.03;49.22;96035.41;5005855;28;20705;-73
2023/06/12 00:54:04;;;;;;;7.90;7.10;;;;;;;19.40;48.95;96041.13;5004564;28;20194;-70
2023/06/12 00:56:30;;;;;;;7.73;6.07;;;;;;;19.18;48.70;96036.78;5006502;28;20454;-72
2023/06/12 00:58:55;;;;;;;7.27;6.67;;;;;;;19.30;48.43;96036.69;5006708;28;20215;-71
2023/06/12 01:01:25;;;;;;;7.83;7.13;;;;;;;19.10;49.37;96039.22;5006262;28;20192;-71
2023/06/12 01:03:56;;;;;;;8.03;7.27;;;;;;;18.76;50.17;96041.19;5006209;28;20172;-71
2023/06/12 01:06:33;;;;;;;7.80;7.03;;;;;;;19.68;48.22;96046.78;5006443;28;20404;-70
2023/06/12 01:09:09;;;;;;;9.90;6.37;;;;;;;19.58;47.97;96036.06;5006304;28;20414;-71
2023/06/12 01:11:36;;;;;;;8.60;7.80;;;;;;;19.18;48.75;96036.78;5006087;28;20492;-72
2023/06/12 01:14:02;;;;;;;8.93;6.53;;;;;;;19.67;47.64;96039.72;5005879;28;20640;-71
2023/06/12 01:16:27;;;;;;;15.47;7.87;;;;;;;19.69;47.57;96042.31;5006045;28;21010;-71
2023/06/12 01:18:52;;;;;;;8.93;7.40;;;;;;;19.46;48.55;96047.72;5004914;28;20771;-71
2023/06/12 01:21:22;;;;;;;11.80;7.27;;;;;;;19.50;48.08;96043.00;5005822;28;20254;-71
2023/06/12 01:24:25;;;;;;;12.67;7.50;;;;;;;19.74;47.56;96034.75;5006159;28;20653;-71
2023/06/12 01:27:11;;;;;;;12.13;7.13;;;;;;;19.77;47.95;96042.47;5006638;28;20786;-73
2023/06/12 01:29:58;;;;;;;13.90;8.40;;;;;;;19.91;47.20;96034.13;5006430;28;20439;-72
2023/06/12 01:32:24;;;;;;;8.67;7.80;;;;;;;19.78;47.89;96037.03;5007520;28;20592;-73
2023/06/12 01:35:05;;;;;;;8.83;7.93;;;;;;;19.45;48.59;96035.41;5010295;28;20470;-73
2023/06/12 01:37:37;;;;;;;10.23;8.23;;;;;;;19.74;48.35;96032.09;5010570;28;20712;-72
2023/06/12 01:40:08;;;;;;;18.70;8.97;;;;;;;19.75;48.08;96029.31;5010232;28;21118;-73
2023/06/12 01:42:34;;;;;;;11.40;8.70;;;;;;;19.78;47.89;96026.38;5010340;28;20411;-72
2023/06/12 01:44:59;;;;;;;8.00;7.30;;;;;;;19.29;49.01;96024.38;5009257;28;20445;-71
2023/06/12 01:47:25;;;;;;;8.83;8.03;;;;;;;19.43;49.10;96029.38;5009546;28;20195;-73
2023/06/12 01:49:50;;;;;;;7.43;6.77;;;;;;;19.47;48.77;96020.16;5009478;28;20613;-71
2023/06/12 01:52:15;;;;;;;9.67;8.70;;;;;;;19.72;48.52;96015.41;5009401;28;20176;-71
2023/06/12 01:54:41;;;;;;;11.37;7.47;;;;;;;19.61;48.51;96009.19;5009759;28;20635;-72
2023/06/12 01:57:08;;;;;;;9.73;7.30;;;;;;;19.87;47.67;96008.75;5009236;28;20311;-72
2023/06/12 01:59:34;;;;;;;11.60;8.60;;;;;;;19.55;48.37;96004.38;5009376;28;20223;-72
2023/06/12 02:02:02;;;;;;;12.37;8.10;;;;;;;19.64;48.17;96000.91;5009556;28;20461;-72
2023/06/12 02:04:29;;;;;;;22.40;9.30;;;;;;;19.35;49.22;96007.91;5009495;28;20411;-72
2023/06/12 02:06:54;;;;;;;8.10;7.30;;;;;;;19.74;48.39;96000.16;5009509;28;20407;-72
2023/06/12 02:09:20;;;;;;;26.30;8.60;;;;;;;19.84;47.83;96001.88;5009643;28;20454;-70
2023/06/12 02:11:45;;;;;;;12.27;9.50;;;;;;;20.00;48.06;95998.69;5009735;28;20288;-71
2023/06/12 02:14:10;;;;;;;9.37;7.67;;;;;;;20.08;47.79;96004.22;5009266;28;20180;-72
2023/06/12 02:16:36;;;;;;;11.10;7.53;;;;;;;19.95;47.77;96000.09;5009744;28;20211;-72
2023/06/12 02:19:02;;;;;;;9.40;7.90;;;;;;;19.40;48.97;96006.53;5011058;28;20663;-72
2023/06/12 02:21:27;;;;;;;25.83;9.70;;;;;;;19.64;48.72;96008.91;5011518;28;20231;-71
2023/06/12 02:23:53;;;;;;;8.53;7.73;;;;;;;19.59;49.07;96010.28;5015741;28;20183;-72
2023/06/12 02:26:19;;;;;;;10.83;8.50;;;;;;;19.16;49.75;96004.16;5025768;28;20256;-72
2023/06/12 02:29:05;;;;;;;20.53;9.97;;;;;;;19.61;49.05;96014.50;5026508;28;20493;-70
2023/06/12 02:31:31;;;;;;;8.57;7.83;;;;;;;18.66;51.07;96017.19;5026220;28;20161;-73
2023/06/12 02:33:56;;;;;;;8.53;7.70;;;;;;;18.87;51.10;96016.38;5026741;28;20907;-76
2023/06/12 02:36:21;;;;;;;8.47;7.57;;;;;;;19.30;49.62;96002.13;5017387;28;20594;-71
2023/06/12 02:38:48;;;;;;;9.30;8.33;;;;;;;19.00;50.83;96011.72;5009446;28;20204;-73
2023/06/12 02:41:13;;;;;;;8.67;7.97;;;;;;;18.53;51.85;96008.50;5009147;28;20694;-72
2023/06/12 02:43:39;;;;;;;13.10;8.63;;;;;;;18.43;52.71;96012.91;5007937;28;20415;-72
2023/06/12 02:46:04;;;;;;;11.67;8.97;;;;;;;18.61;52.04;96014.91;5008998;28;20725;-72
2023/06/12 02:48:30;;;;;;;12.17;7.37;;;;;;;18.72;51.62;96015.81;5008567;28;20224;-71
2023/06/12 02:50:55;;;;;;;9.50;7.60;;;;;;;18.53;52.33;96016.47;5008525;28;20184;-72
2023/06/12 02:53:20;;;;;;;9.00;8.20;;;;;;;18.78;51.61;96016.19;5008125;28;20172;-73
2023/06/12 02:55:46;;;;;;;10.60;9.03;;;;;;;18.51;52.28;96013.94;5008004;28;20239;-72
2023/06/12 02:58:12;;;;;;;11.63;8.90;;;;;;;18.41;52.71;96019.16;5008183;28;20246;-71
2023/06/12 03:00:37;;;;;;;11.20;8.60;;;;;;;18.43;52.46;96020.88;5008135;28;20184;-70
2023/06/12 03:03:04;;;;;;;9.23;8.40;;;;;;;17.88;53.83;96021.69;5007822;28;20303;-71
2023/06/12 03:05:30;;;;;;;8.80;8.00;;;;;;;18.29;53.16;96016.69;5008108;28;20169;-72
2023/06/12 03:07:56;;;;;;;10.30;9.00;;;;;;;18.22;53.28;96013.66;5008209;28;20753;-72
2023/06/12 03:10:21;;;;;;;10.53;8.17;;;;;;;19.12;50.92;96020.50;5007860;28;20885;-72
2023/06/12 03:12:46;;;;;;;14.60;8.90;;;;;;;19.34;50.14;96024.84;5007824;28;20180;-72
2023/06/12 03:15:14;;;;;;;13.03;8.40;;;;;;;18.57;52.17;96026.75;5007607;28;20272;-72
2023/06/12 03:17:40;;;;;;;11.53;8.50;;;;;;;18.85;51.35;96023.63;5006520;28;20219;-71
2023/06/12 03:20:07;;;;;;;9.30;8.37;;;;;;;18.44;52.78;96030.53;5007594;28;20443;-71
2023/06/12 03:22:32;;;;;;;10.00;9.10;;;;;;;18.08;53.83;96035.19;5007603;28;20191;-72
2023/06/12 03:24:58;;;;;;;11.00;8.10;;;;;;;18.17;53.59;96037.09;5007252;28;20905;-72
2023/06/12 03:27:25;;;;;;;10.30;9.27;;;;;;;18.03;54.74;96040.00;5007709;28;20642;-73
2023/06/12 03:29:50;;;;;;;9.90;8.80;;;;;;;18.45;53.09;96032.19;5007553;28;21003;-72
2023/06/12 03:32:16;;;;;;;9.03;8.13;;;;;;;18.61;52.37;96032.63;5007498;28;20411;-72
2023/06/12 03:34:42;;;;;;;9.60;8.60;;;;;;;18.23;53.72;96041.06;5007418;28;20202;-71
2023/06/12 03:37:08;;;;;;;9.23;8.33;;;;;;;18.34;53.54;96038.38;5007390;28;20210;-72
2023/06/12 03:39:33;;;;;;;26.67;10.03;;;;;;;18.06;54.66;96039.75;5007513;28;20514;-71
2023/06/12 03:41:58;;;;;;;13.87;8.57;;;;;;;18.41;53.77;96042.25;5007276;28;20222;-72
2023/06/12 03:44:24;;;;;;;14.20;8.70;;;;;;;18.26;54.06;96041.69;5007160;28;20179;-71
2023/06/12 03:46:50;;;;;;;10.07;8.77;;;;;;;18.31;53.80;96039.50;5007594;28;20196;-71
2023/06/12 03:49:15;;;;;;;10.53;9.50;;;;;;;18.23;53.62;96043.72;5007340;28;20622;-71
2023/06/12 03:51:41;;;;;;;10.20;9.20;;;;;;;18.20;54.24;96050.13;5006984;28;20176;-70
2023/06/12 03:54:07;;;;;;;10.70;8.87;;;;;;;18.19;54.49;96043.97;5006896;28;20176;-71
2023/06/12 03:56:33;;;;;;;25.03;10.40;;;;;;;18.26;54.30;96047.00;5006878;28;20512;-72
2023/06/12 03:58:58;;;;;;;10.43;9.30;;;;;;;18.43;54.13;96042.13;5007035;28;20171;-72
2023/06/12 04:01:24;;;;;;;13.13;9.87;;;;;;;18.56;53.18;96043.63;5007154;28;20696;-72
2023/06/12 04:03:49;;;;;;;14.43;9.30;;;;;;;18.60;53.18;96047.75;5007058;28;20535;-73
2023/06/12 04:06:15;;;;;;;10.67;9.13;;;;;;;18.40;54.45;96049.38;5007434;28;20164;-72
2023/06/12 04:08:40;;;;;;;11.00;9.33;;;;;;;18.44;54.22;96041.16;5005575;28;20211;-71
2023/06/12 04:11:09;;;;;;;10.20;9.20;;;;;;;18.81;52.91;96045.16;5007043;28;20270;-71
2023/06/12 04:13:35;;;;;;;10.40;9.50;;;;;;;18.95;52.34;96049.34;5006757;28;20183;-72
2023/06/12 04:16:01;;;;;;;15.30;11.50;;;;;;;19.44;51.21;96047.00;5007286;28;20913;-71
2023/06/12 04:18:26;;;;;;;11.13;9.13;;;;;;;19.13;52.02;96052.28;5005838;28;20538;-70
2023/06/12 04:20:54;;;;;;;10.63;9.20;;;;;;;19.50;51.15;96059.81;5003286;28;20212;-72
2023/06/12 04:23:20;;;;;;;15.33;8.67;;;;;;;19.96;50.73;96055.03;4998373;28;20192;-72
2023/06/12 04:25:48;;;;;;;15.70;9.03;;;;;;;20.25;50.70;96045.34;5001489;28;20927;-71
2023/06/12 04:28:16;;;;;;;8.13;7.33;;;;;;;20.39;49.90;96053.94;4996010;28;20187;-73
2023/06/12 04:30:42;;;;;;;11.03;8.60;;;;;;;20.52;49.38;96051.84;5001326;28;20506;-72
2023/06/12 04:33:09;;;;;;;10.87;9.70;;;;;;;20.68;48.25;96060.19;4995053;28;20471;-71
2023/06/12 04:35:35;;;;;;;10.27;9.00;;;;;;;20.14;49.34;96063.25;4982813;28;20950;-72
2023/06/12 04:38:00;;;;;;;10.20;9.30;;;;;;;20.05;49.84;96055.06;4982959;28;20447;-72
2023/06/12 04:40:26;;;;;;;19.80;11.27;;;;;;;20.22;49.81;96056.28;4980720;28;20966;-71
2023/06/12 04:42:56;;;;;;;10.83;9.83;;;;;;;20.06;50.03;96066.59;4994457;28;20366;-73
2023/06/12 04:45:22;;;;;;;11.10;8.30;;;;;;;20.67;48.05;96062.97;4989981;28;20255;-74
2023/06/12 04:47:49;;;;;;;19.80;9.70;;;;;;;20.24;49.41;96064.13;4995993;28;20485;-71
2023/06/12 04:50:16;;;;;;;8.93;8.13;;;;;;;20.78;48.46;96067.38;4997406;28;20920;-73
2023/06/12 04:52:41;;;;;;;12.53;8.80;;;;;;;21.11;47.65;96079.47;4996996;28;20438;-71
2023/06/12 04:55:08;;;;;;;11.93;9.50;;;;;;;20.60;48.42;96070.72;4990722;28;20496;-71
2023/06/12 04:57:36;;;;;;;10.27;9.37;;;;;;;20.65;48.82;96072.97;4986273;28;20208;-72
2023/06/12 05:00:05;;;;;;;13.03;9.30;;;;;;;20.41;49.29;96079.47;4999282;28;20451;-72
2023/06/12 05:02:33;;;;;;;11.97;9.83;;;;;;;20.45;49.08;96072.88;5011962;28;20829;-70
2023/06/12 05:04:59;;;;;;;10.43;9.43;;;;;;;20.30;49.95;96074.25;5030043;28;20938;-74
2023/06/12 05:07:24;;;;;;;12.47;9.77;;;;;;;20.80;48.85;96076.91;4992965;28;20432;-73
2023/06/12 05:09:50;;;;;;;10.27;9.37;;;;;;;20.82;48.69;96077.63;5004597;28;20850;-72
2023/06/12 05:12:15;;;;;;;10.97;9.90;;;;;;;20.62;48.85;96076.75;5004944;28;20550;-75
2023/06/12 05:14:43;;;;;;;10.30;9.27;;;;;;;20.16;50.68;96078.13;5001592;28;20211;-72
2023/06/12 05:17:09;;;;;;;11.27;9.60;;;;;;;19.91;51.07;96084.72;5010612;28;20825;-72
2023/06/12 05:19:36;;;;;;;16.93;9.30;;;;;;;20.44;49.85;96075.69;5012490;28;20944;-72
2023/06/12 05:22:02;;;;;;;11.40;10.50;;;;;;;20.79;48.45;96083.25;5015590;28;20807;-74
2023/06/12 05:24:28;;;;;;;10.73;9.70;;;;;;;20.87;48.63;96079.88;5011391;28;20431;-71
2023/06/12 05:26:53;;;;;;;10.90;9.90;;;;;;;20.24;50.50;96091.59;5001952;28;20448;-71
2023/06/12 05:29:19;;;;;;;11.67;10.40;;;;;;;20.22;50.46;96082.06;5010272;28;20188;-73
2023/06/12 05:31:44;;;;;;;14.03;9.33;;;;;;;20.17;50.52;96082.47;5008267;28;20258;-72
2023/06/12 05:34:10;;;;;;;18.23;10.90;;;;;;;20.32;50.50;96082.94;5006014;28;20207;-71
2023/06/12 05:36:36;;;;;;;11.47;10.10;;;;;;;20.35;50.20;96087.16;5007575;28;20198;-71
2023/06/12 05:39:04;;;;;;;11.40;10.10;;;;;;;20.27;50.30;96088.69;5004240;28;20216;-71
2023/06/12 05:41:30;;;;;;;9.87;8.97;;;;;;;19.95;51.28;96095.97;5006629;28;21015;-72
2023/06/12 05:43:55;;;;;;;26.13;13.60;;;;;;;20.41;50.58;96084.81;5001450;28;20435;-71
2023/06/12 05:46:20;;;;;;;12.00;10.80;;;;;;;20.16;51.46;96091.44;5000847;28;20176;-71
2023/06/12 05:48:46;;;;;;;11.07;10.03;;;;;;;20.17;51.60;96094.94;5004831;28;20171;-71
2023/06/12 05:51:11;;;;;;;14.10;10.90;;;;;;;20.05;51.39;96089.69;4998061;28;20207;-71
2023/06/12 05:53:36;;;;;;;12.00;10.70;;;;;;;19.82;52.25;96093.53;5004085;28;20183;-72
2023/06/12 05:56:02;;;;;;;13.43;10.70;;;;;;;20.07;51.69;96086.91;4998393;28;20208;-72
2023/06/12 05:58:27;;;;;;;11.40;10.20;;;;;;;20.46;50.81;96098.56;4994336;28;20258;-75
2023/06/12 06:00:55;;;;;;;14.93;10.87;;;;;;;20.50;50.77;96084.00;4993085;28;20207;-74
2023/06/12 06:03:23;;;;;;;16.00;11.20;;;;;;;20.46;50.57;96084.41;5002813;28;20204;-72
2023/06/12 06:05:49;;;;;;;11.43;10.23;;;;;;;20.63;50.29;96074.94;5006668;28;20409;-71
2023/06/12 06:08:14;;;;;;;12.20;11.10;;;;;;;20.77;49.64;96092.38;5007113;28;20415;-72
2023/06/12 06:10:40;;;;;;;18.47;11.53;;;;;;;19.97;51.94;96092.19;5006931;28;20275;-73
2023/06/12 06:13:06;;;;;;;18.77;12.47;;;;;;;20.33;51.74;96094.44;5006569;28;20694;-72
2023/06/12 06:15:32;;;;;;;12.10;10.93;;;;;;;20.45;51.27;96090.69;5006341;28;20270;-74
2023/06/12 06:17:57;;;;;;;10.70;9.80;;;;;;;20.48;51.29;96096.63;5006878;28;20454;-72
2023/06/12 06:20:22;;;;;;;12.93;11.53;;;;;;;20.52;51.14;96095.34;5007000;28;20199;-75
2023/06/12 06:22:49;;;;;;;11.30;10.37;;;;;;;20.18;52.09;96092.16;5006625;28;20176;-73
2023/06/12 06:25:15;;;;;;;11.27;10.37;;;;;;;20.75;50.97;96089.00;5005882;28;20255;-74
2023/06/12 06:27:41;;;;;;;19.07;11.00;;;;;;;20.97;50.58;96099.38;5005888;28;20431;-71
2023/06/12 06:30:07;;;;;;;17.77;11.50;;;;;;;21.40;49.26;96094.66;5006132;28;20446;-73
2023/06/12 06:32:33;;;;;;;13.93;11.57;;;;;;;21.19;49.64;96098.31;5007224;28;20576;-74
2023/06/12 06:34:58;;;;;;;11.80;10.63;;;;;;;21.26;49.56;96094.09;5008053;28;20179;-70
2023/06/12 06:37:23;;;;;;;13.10;10.03;;;;;;;21.52;48.79;96098.84;5008164;28;20298;-71
2023/06/12 06:39:49;;;;;;;11.97;10.77;;;;;;;21.47;49.35;96093.97;5008602;28;20234;-71
2023/06/12 06:42:14;;;;;;;11.90;10.70;;;;;;;21.99;48.25;96099.75;5008667;28;20546;-74
2023/06/12 06:44:40;;;;;;;14.57;11.73;;;;;;;21.75;48.52;96102.06;5008412;28;20277;-72
2023/06/12 06:47:09;;;;;;;12.60;11.40;;;;;;;21.59;49.07;96109.81;5008473;28;20585;-70
2023/06/12 06:49:35;;;;;;;11.80;10.90;;;;;;;21.55;49.42;96101.25;5008414;28;20196;-74
2023/06/12 06:52:00;;;;;;;13.53;10.80;;;;;;;21.36;49.62;96105.59;5008886;28;20420;-71
2023/06/12 06:54:26;;;;;;;15.83;12.13;;;;;;;21.40;49.53;96114.19;5008415;28;20225;-72
2023/06/12 06:56:51;;;;;;;16.93;11.87;;;;;;;21.37;50.35;96109.09;5008605;28;20802;-74
2023/06/12 06:59:16;;;;;;;12.03;11.03;;;;;;;21.87;49.02;96103.56;5008111;28;20184;-73
2023/06/12 07:01:42;;;;;;;11.57;10.63;;;;;;;22.39;47.92;96106.69;5008086;28;20175;-72
2023/06/12 07:04:07;;;;;;;12.50;11.33;;;;;;;22.49;46.92;96105.75;5008094;28;20302;-72
2023/06/12 07:06:33;;;;;;;12.43;11.20;;;;;;;22.36;47.63;96106.13;5008429;28;20176;-72
2023/06/12 07:09:00;;;;;;;17.00;10.40;;;;;;;22.70;47.00;96098.38;5008741;28;20175;-72
2023/06/12 07:11:26;;;;;;;12.40;11.00;;;;;;;21.74;48.73;96117.25;5007502;28;20192;-72
2023/06/12 07:13:52;;;;;;;12.60;11.40;;;;;;;21.49;49.59;96101.81;5008094;28;20884;-74
2023/06/12 07:16:18;;;;;;;18.83;11.53;;;;;;;22.33;47.14;96109.94;5008136;28;20462;-74
2023/06/12 07:18:44;;;;;;;15.13;11.07;;;;;;;22.06;48.06;96107.19;5008032;28;20855;-74
2023/06/12 07:21:09;;;;;;;11.97;10.97;;;;;;;21.68;49.42;96103.63;5007926;28;20211;-72
2023/06/12 07:23:35;;;;;;;15.23;10.77;;;;;;;21.82;48.41;96102.31;5007396;28;20692;-73
2023/06/12 07:26:00;;;;;;;12.80;11.50;;;;;;;21.96;48.27;96101.88;5008217;28;20164;-72
2023/06/12 07:28:26;;;;;;;19.87;10.53;;;;;;;22.07;46.14;96112.38;5007883;28;20956;-74
2023/06/12 07:30:51;;;;;;;16.07;10.13;;;;;;;22.11;47.18;96107.56;5007493;28;20192;-71
2023/06/12 07:33:17;;;;;;;11.13;9.90;;;;;;;22.51;45.72;96101.13;5007751;28;20184;-72
2023/06/12 07:35:42;;;;;;;11.17;10.00;;;;;;;22.79;45.66;96105.47;5007885;28;20538;-72
2023/06/12 07:38:08;;;;;;;25.83;10.90;;;;;;;23.10;45.03;96086.41;5007953;28;20187;-73
2023/06/12 07:40:33;;;;;;;10.50;9.03;;;;;;;23.25;44.13;96100.97;5007578;28;20215;-72
2023/06/12 07:42:58;;;;;;;13.07;9.10;;;;;;;23.46;42.88;96100.66;5008024;28;20727;-73
2023/06/12 07:45:24;;;;;;;15.13;11.00;;;;;;;23.16;43.44;96087.66;5008039;28;20176;-72
2023/06/12 07:47:49;;;;;;;12.23;9.40;;;;;;;23.68;42.49;96095.78;5007783;28;20630;-70
2023/06/12 07:50:15;;;;;;;11.20;9.13;;;;;;;23.40;40.57;96093.22;5007497;28;20192;-73
2023/06/12 07:52:41;;;;;;;28.10;10.53;;;;;;;23.00;42.87;96091.84;5007151;28;20176;-75
2023/06/12 07:55:07;;;;;;;14.93;9.57;;;;;;;22.79;43.33;96083.22;5007111;28;20206;-72
2023/06/12 07:57:32;;;;;;;10.90;9.53;;;;;;;22.75;43.17;96081.88;5007486;28;20204;-72
2023/06/12 07:59:58;;;;;;;9.27;8.37;;;;;;;22.67;41.32;96085.25;5007238;28;20513;-70
2023/06/12 08:02:28;;;;;;;11.20;9.20;;;;;;;22.79;41.82;96084.06;5007150;28;20961;-73
2023/06/12 08:04:56;;;;;;;11.70;8.87;;;;;;;22.86;40.68;96089.66;5007001;28;20942;-72
2023/06/12 08:07:21;;;;;;;8.40;7.60;;;;;;;23.05;39.30;96069.97;5007795;28;20928;-73
2023/06/12 08:09:47;;;;;;;8.70;7.80;;;;;;;22.94;39.48;96079.06;5007682;28;20458;-74
2023/06/12 08:12:12;;;;;;;9.47;8.47;;;;;;;22.74;39.73;96064.94;5007194;28;20327;-72
2023/06/12 08:14:39;;;;;;;11.43;7.83;;;;;;;22.84;37.92;96067.56;5006863;28;20172;-74
2023/06/12 08:17:04;;;;;;;10.40;7.20;;;;;;;23.21;35.62;96074.66;5006649;28;20216;-71
2023/06/12 08:19:32;;;;;;;13.83;8.67;;;;;;;23.16;35.99;96068.91;5006772;28;20967;-71
2023/06/12 08:21:58;;;;;;;12.63;7.60;;;;;;;23.00;37.47;96067.75;5006390;28;20248;-71
2023/06/12 08:24:25;;;;;;;9.53;7.97;;;;;;;23.29;37.04;96061.31;5006073;28;20469;-72
2023/06/12 08:26:50;;;;;;;9.30;8.30;;;;;;;22.95;37.13;96071.84;5006351;28;20414;-72
2023/06/12 08:29:16;;;;;;;15.23;7.87;;;;;;;23.05;38.59;96061.94;5006137;28;20423;-71
2023/06/12 08:31:41;;;;;;;8.53;7.73;;;;;;;22.98;37.22;96066.19;5006346;28;20254;-72
2023/06/12 08:34:06;;;;;;;10.37;8.33;;;;;;;22.95;35.77;96059.31;5006236;28;20226;-70
2023/06/12 08:36:35;;;;;;;7.90;7.30;;;;;;;22.79;37.86;96053.78;5006267;28;20282;-73
2023/06/12 08:39:00;;;;;;;8.63;7.80;;;;;;;23.16;37.67;96059.03;5006264;28;20237;-71
2023/06/12 08:41:30;;;;;;;8.50;7.80;;;;;;;23.24;35.06;96050.22;5006823;28;20438;-72
2023/06/12 08:43:59;;;;;;;31.20;8.07;;;;;;;22.77;34.75;96085.19;5008103;28;20186;-71
2023/06/12 08:46:29;;;;;;;9.30;8.37;;;;;;;23.02;33.86;96068.44;5007893;28;21125;-70
2023/06/12 08:48:55;;;;;;;7.90;7.10;;;;;;;22.74;34.96;96072.97;5007933;28;20425;-71
2023/06/12 08:51:22;;;;;;;7.67;6.87;;;;;;;22.94;35.16;96065.66;5008606;28;20435;-72
2023/06/12 08:53:47;;;;;;;8.40;7.70;;;;;;;23.50;34.51;96078.91;5007637;28;20432;-72
2023/06/12 08:56:13;;;;;;;8.10;7.40;;;;;;;22.88;34.86;96065.44;5006444;28;20557;-72
2023/06/12 08:58:39;;;;;;;7.43;6.73;;;;;;;23.18;35.81;96067.75;5006246;28;20662;-70
2023/06/12 09:01:08;;;;;;;8.30;7.50;;;;;;;23.02;36.07;96059.59;5006126;28;20196;-72
2023/06/12 09:03:36;;;;;;;9.60;8.03;;;;;;;23.33;35.54;96065.38;5005489;28;20246;-71
2023/06/12 09:06:05;;;;;;;7.30;6.60;;;;;;;23.40;34.99;96070.97;5006571;28;20403;-72
2023/06/12 09:08:31;;;;;;;8.37;7.57;;;;;;;23.49;34.85;96059.31;5006383;28;20464;-73
2023/06/12 09:10:58;;;;;;;10.87;8.53;;;;;;;23.34;34.96;96061.72;5005844;28;20471;-72
2023/06/12 09:13:23;;;;;;;9.83;8.87;;;;;;;23.56;34.11;96059.53;5005751;28;20442;-74
2023/06/12 09:15:52;;;;;;;14.17;8.63;;;;;;;23.25;34.79;96051.94;5006269;28;20790;-72
2023/06/12 09:18:19;;;;;;;12.80;8.93;;;;;;;23.11;36.57;96055.16;5006301;28;20217;-72
2023/06/12 09:20:45;;;;;;;12.53;7.87;;;;;;;23.79;35.38;96055.38;5006314;28;20462;-73
2023/06/12 09:23:12;;;;;;;8.67;7.87;;;;;;;22.96;36.03;96058.34;5005883;28;20854;-74
2023/06/12 09:25:42;;;;;;;8.63;7.67;;;;;;;23.34;35.39;96060.84;5005638;28;20579;-71
2023/06/12 09:28:09;;;;;;;10.80;7.40;;;;;;;23.53;35.01;96049.13;5006204;28;20418;-72
2023/06/12 09:30:42;;;;;;;8.83;7.90;;;;;;;23.57;34.76;96056.69;5005982;28;20521;-75
2023/06/12 09:33:08;;;;;;;8.13;7.40;;;;;;;23.62;34.34;96059.75;5006158;28;20425;-74
2023/06/12 09:35:49;;;;;;;12.20;7.70;;;;;;;23.55;33.98;96047.13;5005590;28;20419;-74
2023/06/12 09:38:14;;;;;;;7.67;6.70;;;;;;;23.72;32.82;96048.06;5006131;28;20431;-73
2023/06/12 09:40:40;;;;;;;7.63;6.87;;;;;;;24.00;32.29;96048.78;5005716;28;20438;-72
2023/06/12 09:43:06;;;;;;;7.70;6.90;;;;;;;23.60;32.65;96058.25;5005867;28;20630;-72
2023/06/12 09:45:31;;;;;;;10.63;7.03;;;;;;;23.71;32.52;96046.41;5005648;28;20294;-72
2023/06/12 09:47:57;;;;;;;7.30;6.67;;;;;;;23.60;33.28;96052.88;5005708;28;20615;-73
2023/06/12 09:50:23;;;;;;;9.20;7.50;;;;;;;23.36;33.05;96057.06;5005590;28;20199;-72
2023/06/12 09:52:49;;;;;;;8.20;7.40;;;;;;;23.64;32.73;96054.22;5005180;28;20295;-72
2023/06/12 09:55:16;;;;;;;7.40;6.60;;;;;;;23.49;33.43;96050.44;5008751;28;20544;-74
2023/06/12 09:57:48;;;;;;;11.50;7.97;;;;;;;23.61;33.68;96046.50;5009199;28;20231;-73
2023/06/12 10:00:16;;;;;;;8.37;7.20;;;;;;;23.98;33.64;96048.13;5009306;28;20434;-72
2023/06/12 10:02:50;;;;;;;8.37;7.57;;;;;;;23.59;33.42;96053.88;5009221;28;20411;-72
2023/06/12 10:05:35;;;;;;;8.50;7.43;;;;;;;23.61;33.35;96063.41;5009067;28;20411;-74
2023/06/12 10:08:03;;;;;;;13.83;7.73;;;;;;;23.72;33.35;96058.78;5009321;28;20402;-72
2023/06/12 10:10:30;;;;;;;12.93;7.63;;;;;;;23.71;33.90;96051.75;5009276;28;20783;-73
2023/06/12 10:12:56;;;;;;;8.63;7.90;;;;;;;23.62;33.97;96038.34;5009228;28;20418;-72
2023/06/12 10:15:22;;;;;;;7.97;7.17;;;;;;;23.85;32.24;96049.38;5008706;28;20403;-72
2023/06/12 10:17:51;;;;;;;7.37;6.40;;;;;;;23.84;31.08;96046.88;5009158;28;20896;-73
2023/06/12 10:20:18;;;;;;;11.67;6.70;;;;;;;24.07;30.16;96039.97;5009138;28;20215;-72
2023/06/12 10:22:45;;;;;;;7.43;6.60;;;;;;;24.11;29.60;96035.09;5009201;28;20455;-72
2023/06/12 10:25:11;;;;;;;7.40;6.70;;;;;;;23.78;30.14;96039.44;5008126;28;20508;-72
2023/06/12 10:27:37;;;;;;;7.80;7.10;;;;;;;24.06;30.91;96032.06;5008589;28;20496;-72
2023/06/12 10:30:03;;;;;;;7.17;6.47;;;;;;;24.25;31.69;96034.50;5008926;28;20246;-73
2023/06/12 10:32:32;;;;;;;9.90;7.27;;;;;;;23.52;29.84;96050.13;5009017;28;20502;-71
2023/06/12 10:34:59;;;;;;;7.10;6.50;;;;;;;24.07;28.61;96036.41;5008238;28;20414;-73
2023/06/12 10:37:33;;;;;;;8.40;6.93;;;;;;;23.85;28.55;96041.34;5008531;28;20465;-72
2023/06/12 10:40:19;;;;;;;11.80;7.80;;;;;;;24.16;29.00;96023.91;5008416;28;20435;-72
2023/06/12 10:42:55;;;;;;;7.60;6.90;;;;;;;23.93;30.21;96032.53;5008500;28;20414;-72
2023/06/12 10:45:28;;;;;;;10.60;7.63;;;;;;;24.00;30.50;96020.16;5008478;28;20474;-72
2023/06/12 10:48:17;;;;;;;16.83;7.20;;;;;;;23.87;29.74;96020.59;5008457;28;20415;-72
2023/06/12 10:50:45;;;;;;;14.20;6.37;;;;;;;24.02;29.41;96022.66;5008725;28;20540;-72
2023/06/12 10:53:13;;;;;;;8.40;7.60;;;;;;;23.93;29.33;96016.44;5008639;28;20422;-72
2023/06/12 10:55:39;;;;;;;13.63;8.20;;;;;;;23.65;29.57;96024.63;5008276;28;20447;-71
2023/06/12 10:58:07;;;;;;;11.60;8.40;;;;;;;23.90;29.91;96018.59;5011486;28;20474;-72
2023/06/12 11:00:37;;;;;;;8.90;6.43;;;;;;;23.49;30.22;96047.78;5008540;28;20517;-72
2023/06/12 11:03:16;;;;;;;7.63;6.73;;;;;;;23.98;30.02;96008.75;5008480;28;20601;-73
2023/06/12 11:05:58;;;;;;;12.40;7.27;;;;;;;23.84;29.81;95994.13;5006946;28;20411;-73
2023/06/12 11:08:26;;;;;;;14.50;6.87;;;;;;;23.96;29.80;96000.03;5008528;28;20470;-72
2023/06/12 11:10:51;;;;;;;8.00;6.30;;;;;;;23.92;29.50;96005.88;5008143;28;20435;-72
2023/06/12 11:13:21;;;;;;;7.77;6.77;;;;;;;23.65;29.29;95995.16;5008025;28;20422;-72
2023/06/12 11:15:47;;;;;;;10.60;6.13;;;;;;;23.88;29.76;96005.34;5007560;28;20585;-71
2023/06/12 11:18:14;;;;;;;7.47;6.77;;;;;;;23.78;29.46;96000.09;5007989;28;20427;-72
2023/06/12 11:20:40;;;;;;;8.43;7.53;;;;;;;23.92;29.63;96003.19;5011423;28;20200;-73
2023/06/12 11:23:06;;;;;;;7.73;6.77;;;;;;;24.05;29.40;95995.56;5016386;28;20442;-73
2023/06/12 11:25:44;;;;;;;7.50;6.80;;;;;;;24.11;29.51;95988.69;5015747;28;20772;-72